createdAt,value
2024-02-19T00:00:03.061Z,86.78
2024-02-19T00:02:29.507Z,88.80
2024-02-19T00:04:56.037Z,87.70
2024-02-19T00:07:22.986Z,88.27
2024-02-19T00:09:49.508Z,87.10
2024-02-19T00:12:16.157Z,87.87
2024-02-19T00:14:42.625Z,87.07
2024-02-19T00:17:09.136Z,85.48
2024-02-19T00:19:35.706Z,85.41
2024-02-19T00:22:02.226Z,84.54
2024-02-19T00:24:28.680Z,84.55
2024-02-19T00:26:55.097Z,84.76
2024-02-19T00:29:21.525Z,83.41
2024-02-19T00:31:47.955Z,80.59
2024-02-19T00:34:14.514Z,78.89
2024-02-19T00:36:41.001Z,77.89
2024-02-19T00:39:07.469Z,76.27
2024-02-19T00:41:33.873Z,74.34
2024-02-19T00:44:00.346Z,74.06
2024-02-19T00:46:26.791Z,75.43
2024-02-19T00:48:53.360Z,75.42
2024-02-19T00:51:19.945Z,77.46
2024-02-19T00:53:46.356Z,78.85
2024-02-19T00:56:12.803Z,79.13
2024-02-19T00:58:39.252Z,76.86
2024-02-19T01:01:05.803Z,75.24
2024-02-19T01:03:32.315Z,75.80
2024-02-19T01:05:58.844Z,75.89
2024-02-19T01:08:25.348Z,74.61
2024-02-19T01:10:51.804Z,75.69
2024-02-19T01:13:18.279Z,76.68
2024-02-19T01:15:44.783Z,77.37
2024-02-19T01:18:11.313Z,75.42
2024-02-19T01:20:37.905Z,77.16
2024-02-19T01:23:04.339Z,76.78
2024-02-19T01:25:30.760Z,76.95
2024-02-19T01:27:57.222Z,78.54
2024-02-19T01:30:23.720Z,79.25
2024-02-19T01:32:50.148Z,81.18
2024-02-19T01:35:16.643Z,80.74
2024-02-19T01:37:43.106Z,81.18
2024-02-19T01:40:09.539Z,81.43
2024-02-19T01:42:35.997Z,83.37
2024-02-19T01:45:02.477Z,81.05
2024-02-19T01:47:28.926Z,80.44
2024-02-19T01:49:55.516Z,79.82
2024-02-19T01:52:21.987Z,78.04
2024-02-19T01:54:48.446Z,78.90
2024-02-19T01:57:14.869Z,80.43
2024-02-19T01:59:41.275Z,79.66
2024-02-19T02:02:07.691Z,79.79
2024-02-19T02:04:34.087Z,80.90
2024-02-19T02:07:00.536Z,79.94
2024-02-19T02:09:26.967Z,79.63
2024-02-19T02:11:53.400Z,78.14
2024-02-19T02:14:19.826Z,77.68
2024-02-19T02:16:46.238Z,78.41
2024-02-19T02:19:12.750Z,77.59
2024-02-19T02:21:39.245Z,75.44
2024-02-19T02:24:05.677Z,74.81
2024-02-19T02:26:32.102Z,74.58
2024-02-19T02:28:58.530Z,74.51
2024-02-19T02:31:24.990Z,73.13
2024-02-19T02:33:51.644Z,72.79
2024-02-19T02:36:18.223Z,71.84
2024-02-19T02:38:44.647Z,73.06
2024-02-19T02:41:11.072Z,74.76
2024-02-19T02:43:37.490Z,76.38
2024-02-19T02:46:03.973Z,75.95
2024-02-19T02:48:30.487Z,75.09
2024-02-19T02:50:56.967Z,75.67
2024-02-19T02:53:23.391Z,74.43
2024-02-19T02:55:49.835Z,75.11
2024-02-19T02:58:16.475Z,74.70
2024-02-19T03:00:43.033Z,77.19
2024-02-19T03:03:09.501Z,75.90
2024-02-19T03:05:35.919Z,74.32
2024-02-19T03:08:02.384Z,73.51
2024-02-19T03:10:28.839Z,72.18
2024-02-19T03:12:55.279Z,71.47
2024-02-19T03:15:21.703Z,71.69
2024-02-19T03:17:48.258Z,73.39
2024-02-19T03:20:14.866Z,74.93
2024-02-19T03:22:41.430Z,75.97
2024-02-19T03:25:07.913Z,73.81
2024-02-19T03:27:34.348Z,73.57
2024-02-19T03:30:00.790Z,73.69
2024-02-19T03:32:27.261Z,72.08
2024-02-19T03:34:53.751Z,70.93
2024-02-19T03:37:20.346Z,71.21
2024-02-19T03:39:46.860Z,70.90
2024-02-19T03:42:13.311Z,72.18
2024-02-19T03:44:39.733Z,70.98
2024-02-19T03:47:06.169Z,73.17
2024-02-19T03:49:32.670Z,73.02
2024-02-19T03:51:59.247Z,72.41
2024-02-19T03:54:25.754Z,72.55
2024-02-19T03:56:52.207Z,71.89
2024-02-19T03:59:18.615Z,72.00
2024-02-19T04:01:45.149Z,72.73
2024-02-19T04:04:11.638Z,72.67
2024-02-19T04:06:38.187Z,71.65
2024-02-19T04:09:04.673Z,70.60
2024-02-19T04:11:31.124Z,70.70
2024-02-19T04:13:57.576Z,71.77
2024-02-19T04:16:24.042Z,71.11
2024-02-19T04:18:50.741Z,70.80
2024-02-19T04:21:17.279Z,71.28
2024-02-19T04:23:43.711Z,70.53
2024-02-19T04:26:10.132Z,69.48
2024-02-19T04:28:36.565Z,70.43
2024-02-19T04:31:03.161Z,70.89
2024-02-19T04:33:29.692Z,70.13
2024-02-19T04:35:56.215Z,67.90
2024-02-19T04:38:22.654Z,68.56
2024-02-19T04:40:49.111Z,70.68
2024-02-19T04:43:15.693Z,70.12
2024-02-19T04:45:42.183Z,70.59
2024-02-19T04:48:08.711Z,71.43
2024-02-19T04:50:35.166Z,71.22
2024-02-19T04:53:01.606Z,71.63
2024-02-19T04:55:28.102Z,71.13
2024-02-19T04:57:54.664Z,71.58
2024-02-19T05:00:21.093Z,71.32
2024-02-19T05:02:47.545Z,71.22
2024-02-19T05:05:14.023Z,70.92
2024-02-19T05:07:40.492Z,70.57
2024-02-19T05:10:07.371Z,70.18
2024-02-19T05:12:33.812Z,70.58
2024-02-19T05:15:00.252Z,71.43
2024-02-19T05:17:26.719Z,73.11
2024-02-19T05:19:53.209Z,72.72
2024-02-19T05:22:19.791Z,72.19
2024-02-19T05:24:46.485Z,72.29
2024-02-19T05:27:13.050Z,72.17
2024-02-19T05:29:39.485Z,71.67
2024-02-19T05:32:05.901Z,71.73
2024-02-19T05:34:32.373Z,72.70
2024-02-19T05:36:58.841Z,72.63
2024-02-19T05:39:25.293Z,71.53
2024-02-19T05:41:51.700Z,73.39
2024-02-19T05:44:18.151Z,73.34
2024-02-19T05:46:44.730Z,72.53
2024-02-19T05:49:11.204Z,71.27
2024-02-19T05:51:37.834Z,72.51
2024-02-19T05:54:04.304Z,73.04
2024-02-19T05:56:30.738Z,73.73
2024-02-19T05:58:57.187Z,73.52
2024-02-19T06:01:23.810Z,72.77
2024-02-19T06:03:50.346Z,72.36
2024-02-19T06:06:16.848Z,73.93
2024-02-19T06:08:43.274Z,74.21
2024-02-19T06:11:09.777Z,74.27
2024-02-19T06:13:36.282Z,73.20
2024-02-19T06:16:02.812Z,72.70
2024-02-19T06:18:29.366Z,71.72
2024-02-19T06:20:55.860Z,70.96
2024-02-19T06:23:22.320Z,71.87
2024-02-19T06:25:48.725Z,72.44
2024-02-19T06:28:15.279Z,72.08
2024-02-19T06:30:41.831Z,72.90
2024-02-19T06:33:08.639Z,73.65
2024-02-19T06:35:35.187Z,74.58
2024-02-19T06:38:01.631Z,74.83
2024-02-19T06:40:28.286Z,74.66
2024-02-19T06:42:55.427Z,75.02
2024-02-19T06:45:22.388Z,76.09
2024-02-19T06:47:48.830Z,75.96
2024-02-19T06:50:15.368Z,76.24
2024-02-19T06:52:41.817Z,75.62
2024-02-19T06:55:08.257Z,75.80
2024-02-19T06:57:34.715Z,75.43
2024-02-19T07:00:01.122Z,75.97
2024-02-19T07:02:27.551Z,75.74
2024-02-19T07:04:54.168Z,75.02
2024-02-19T07:07:20.749Z,74.28
2024-02-19T07:09:47.271Z,73.59
2024-02-19T07:12:13.724Z,73.36
2024-02-19T07:14:40.182Z,74.79
2024-02-19T07:17:06.602Z,73.81
2024-02-19T07:19:33.138Z,74.69
2024-02-19T07:21:59.690Z,74.93
2024-02-19T07:24:26.134Z,73.71
2024-02-19T07:26:52.580Z,73.16
2024-02-19T07:29:19.010Z,73.00
2024-02-19T07:31:45.527Z,73.33
2024-02-19T07:34:12.111Z,72.91
2024-02-19T07:36:38.645Z,72.19
2024-02-19T07:39:05.130Z,70.80
2024-02-19T07:41:31.550Z,71.43
2024-02-19T07:43:57.999Z,70.26
2024-02-19T07:46:24.456Z,70.25
2024-02-19T07:48:51.128Z,69.98
2024-02-19T07:51:17.613Z,70.29
2024-02-19T07:53:44.037Z,71.00
2024-02-19T07:56:10.471Z,72.38
2024-02-19T07:58:36.887Z,72.65
2024-02-19T08:01:04.417Z,72.47
2024-02-19T08:03:31.459Z,73.90
2024-02-19T08:05:57.979Z,73.27
2024-02-19T08:08:24.416Z,71.46
2024-02-19T08:10:50.846Z,70.31
2024-02-19T08:13:17.503Z,70.05
2024-02-19T08:15:44.077Z,69.31
2024-02-19T08:18:10.608Z,70.01
2024-02-19T08:20:37.073Z,69.34
2024-02-19T08:23:03.510Z,69.21
2024-02-19T08:25:29.967Z,69.02
2024-02-19T08:27:56.450Z,69.54
2024-02-19T08:30:22.901Z,70.82
2024-02-19T08:32:49.429Z,71.09
2024-02-19T08:35:15.958Z,70.43
2024-02-19T08:37:42.536Z,70.42
2024-02-19T08:40:09.044Z,69.29
2024-02-19T08:42:35.543Z,69.07
2024-02-19T08:45:01.963Z,69.25
2024-02-19T08:47:28.432Z,69.27
2024-02-19T08:49:55.016Z,68.95
2024-02-19T08:52:21.489Z,68.77
2024-02-19T08:54:47.964Z,68.07
2024-02-19T08:57:14.427Z,67.73
2024-02-19T08:59:40.843Z,68.01
2024-02-19T09:02:07.423Z,66.89
2024-02-19T09:04:34.068Z,67.04
2024-02-19T09:07:00.810Z,68.54
2024-02-19T09:09:27.385Z,68.48
2024-02-19T09:11:53.926Z,68.48
2024-02-19T09:14:20.427Z,68.16
2024-02-19T09:16:46.954Z,68.34
2024-02-19T09:19:13.395Z,69.85
2024-02-19T09:21:39.931Z,68.75
2024-02-19T09:24:06.344Z,70.83
2024-02-19T09:26:32.797Z,71.01
2024-02-19T09:28:59.249Z,75.25
2024-02-19T09:31:25.679Z,73.10
2024-02-19T09:33:52.300Z,72.13
2024-02-19T09:36:18.781Z,73.05
2024-02-19T09:38:45.186Z,83.33
2024-02-19T09:41:11.620Z,81.57
2024-02-19T09:43:38.032Z,78.01
2024-02-19T09:46:04.488Z,79.17
2024-02-19T09:48:31.011Z,79.69
2024-02-19T09:50:57.492Z,77.86
2024-02-19T09:53:23.985Z,76.44
2024-02-19T09:55:50.433Z,75.42
2024-02-19T09:58:16.949Z,76.09
2024-02-19T10:00:43.507Z,73.56
2024-02-19T10:03:10.001Z,73.58
2024-02-19T10:05:36.531Z,72.69
2024-02-19T10:08:03.082Z,71.85
2024-02-19T10:10:29.723Z,67.37
2024-02-19T10:12:56.301Z,65.38
2024-02-19T10:15:22.750Z,64.12
2024-02-19T10:17:49.256Z,62.84
2024-02-19T10:20:15.766Z,61.57
2024-02-19T10:22:42.229Z,60.71
2024-02-19T10:25:08.990Z,61.48
2024-02-19T10:27:35.575Z,60.31
2024-02-19T10:30:02.038Z,62.60
2024-02-19T10:32:28.683Z,64.13
2024-02-19T10:34:55.184Z,64.18
2024-02-19T10:37:21.732Z,64.86
2024-02-19T10:39:48.215Z,67.40
2024-02-19T10:42:14.656Z,68.67
2024-02-19T10:44:41.085Z,65.89
2024-02-19T10:47:07.516Z,67.26
2024-02-19T10:49:33.999Z,69.77
2024-02-19T10:52:00.623Z,67.29
2024-02-19T10:54:27.196Z,70.10
2024-02-19T10:56:53.723Z,67.28
2024-02-19T10:59:20.242Z,65.56
2024-02-19T11:01:46.753Z,63.19
2024-02-19T11:04:13.349Z,60.93
2024-02-19T11:06:39.940Z,60.29
2024-02-19T11:09:06.414Z,59.62
2024-02-19T11:11:32.870Z,60.49
2024-02-19T11:13:59.339Z,60.41
2024-02-19T11:16:25.833Z,57.82
2024-02-19T11:18:54.642Z,57.83
2024-02-19T11:21:21.947Z,57.80
2024-02-19T11:23:48.388Z,60.67
2024-02-19T11:26:14.846Z,63.11
2024-02-19T11:28:41.300Z,64.50
2024-02-19T11:31:07.767Z,66.16
2024-02-19T11:33:34.242Z,69.74
2024-02-19T11:36:00.674Z,69.12
2024-02-19T11:38:27.106Z,68.92
2024-02-19T11:40:53.539Z,67.20
2024-02-19T11:43:20.059Z,66.82
2024-02-19T11:45:46.493Z,65.32
2024-02-19T11:48:12.992Z,61.46
2024-02-19T11:50:41.317Z,59.32
2024-02-19T11:53:09.143Z,57.48
2024-02-19T11:55:35.734Z,54.72
2024-02-19T11:58:03.269Z,52.39
2024-02-19T12:00:30.354Z,50.04
2024-02-19T12:02:56.790Z,47.01
2024-02-19T12:05:23.261Z,48.58
2024-02-19T12:07:49.952Z,48.01
2024-02-19T12:10:16.507Z,48.76
2024-02-19T12:12:43.041Z,49.03
2024-02-19T12:15:09.514Z,47.33
2024-02-19T12:17:35.977Z,46.73
2024-02-19T12:20:02.550Z,47.74
2024-02-19T12:22:29.076Z,48.16
2024-02-19T12:24:55.835Z,48.14
2024-02-19T12:27:22.397Z,51.96
2024-02-19T12:29:48.811Z,55.59
2024-02-19T12:32:15.250Z,55.16
2024-02-19T12:34:41.757Z,56.27
2024-02-19T12:37:08.371Z,57.18
2024-02-19T12:39:34.886Z,60.75
2024-02-19T12:42:01.305Z,62.43
2024-02-19T12:44:27.742Z,60.82
2024-02-19T12:46:54.253Z,60.88
2024-02-19T12:49:20.940Z,60.80
2024-02-19T12:51:47.585Z,62.25
2024-02-19T12:54:14.143Z,66.04
2024-02-19T12:56:40.566Z,67.43
2024-02-19T12:59:07.007Z,67.93
2024-02-19T13:01:34.108Z,65.53
2024-02-19T13:04:00.892Z,64.78
2024-02-19T13:06:27.698Z,65.33
2024-02-19T13:08:54.157Z,65.48
2024-02-19T13:11:20.756Z,63.85
2024-02-19T13:13:47.342Z,61.50
2024-02-19T13:16:13.844Z,60.20
2024-02-19T13:18:40.376Z,61.17
2024-02-19T13:21:06.872Z,60.11
2024-02-19T13:23:33.307Z,58.40
2024-02-19T13:25:59.725Z,58.58
2024-02-19T13:28:26.249Z,57.54
2024-02-19T13:30:52.719Z,57.81
2024-02-19T13:33:19.316Z,61.00
2024-02-19T13:35:45.875Z,60.06
2024-02-19T13:38:12.287Z,59.22
2024-02-19T13:40:38.720Z,58.52
2024-02-19T13:43:05.219Z,57.90
2024-02-19T13:45:31.657Z,60.04
2024-02-19T13:47:58.104Z,59.23
2024-02-19T13:50:24.895Z,58.99
2024-02-19T13:52:51.558Z,57.30
2024-02-19T13:55:21.092Z,56.10
2024-02-19T13:57:47.661Z,55.32
2024-02-19T14:00:14.155Z,55.45
2024-02-19T14:02:40.616Z,56.32
2024-02-19T14:05:07.110Z,56.47
2024-02-19T14:07:33.608Z,56.86
2024-02-19T14:10:00.084Z,50.56
2024-02-19T14:12:26.532Z,58.24
2024-02-19T14:14:52.972Z,59.84
2024-02-19T14:17:19.426Z,58.73
2024-02-19T14:19:45.952Z,56.95
2024-02-19T14:22:12.487Z,54.43
2024-02-19T14:24:39.070Z,51.42
2024-02-19T14:27:05.733Z,45.46
2024-02-19T14:29:33.385Z,42.54
2024-02-19T14:31:59.797Z,40.15
2024-02-19T14:34:26.592Z,41.93
2024-02-19T14:36:53.191Z,41.20
2024-02-19T14:39:19.750Z,39.49
2024-02-19T14:41:46.182Z,51.43
2024-02-19T14:44:12.607Z,53.19
2024-02-19T14:46:45.680Z,54.29
2024-02-19T14:49:18.042Z,54.81
2024-02-19T14:51:44.747Z,56.88
2024-02-19T14:54:11.226Z,59.05
2024-02-19T14:56:39.520Z,58.30
2024-02-19T14:59:06.041Z,55.74
2024-02-19T15:01:32.556Z,54.02
2024-02-19T15:03:59.185Z,53.48
2024-02-19T15:06:25.782Z,52.86
2024-02-19T15:08:52.256Z,52.64
2024-02-19T15:11:18.725Z,52.33
2024-02-19T15:13:45.285Z,51.50
2024-02-19T15:16:11.819Z,50.87
2024-02-19T15:18:38.325Z,54.09
2024-02-19T15:21:04.783Z,56.12
2024-02-19T15:23:31.245Z,59.07
2024-02-19T15:25:59.108Z,60.33
2024-02-19T15:28:25.797Z,60.91
2024-02-19T15:30:52.296Z,63.57
2024-02-19T15:33:18.837Z,62.40
2024-02-19T15:35:45.469Z,61.35
2024-02-19T15:38:13.691Z,60.78
2024-02-19T15:40:40.494Z,59.96
2024-02-19T15:43:07.183Z,60.24
2024-02-19T15:45:33.622Z,61.13
2024-02-19T15:48:00.109Z,59.92
2024-02-19T15:50:26.655Z,59.02
2024-02-19T15:52:58.887Z,59.01
2024-02-19T15:55:31.776Z,56.41
2024-02-19T15:57:58.384Z,55.97
2024-02-19T16:00:24.957Z,55.86
2024-02-19T16:02:51.433Z,54.71
2024-02-19T16:05:17.931Z,55.15
2024-02-19T16:07:44.549Z,56.10
2024-02-19T16:10:11.094Z,55.61
2024-02-19T16:12:37.541Z,55.72
2024-02-19T16:15:03.990Z,56.17
2024-02-19T16:17:30.419Z,55.54
2024-02-19T16:19:56.951Z,55.73
2024-02-19T16:22:23.437Z,55.99
2024-02-19T16:24:49.907Z,57.27
2024-02-19T16:27:16.365Z,57.22
2024-02-19T16:29:42.794Z,57.17
2024-02-19T16:32:09.250Z,57.54
2024-02-19T16:34:35.736Z,57.93
2024-02-19T16:37:02.292Z,57.67
2024-02-19T16:39:28.733Z,58.31
2024-02-19T16:41:55.338Z,57.07
2024-02-19T16:44:21.763Z,56.82
2024-02-19T16:46:48.225Z,56.60
2024-02-19T16:49:14.867Z,55.49
2024-02-19T16:51:41.368Z,56.54
2024-02-19T16:54:07.806Z,57.03
2024-02-19T16:56:34.212Z,57.21
2024-02-19T16:59:00.664Z,57.38
2024-02-19T17:01:27.231Z,57.94
2024-02-19T17:03:53.866Z,57.93
2024-02-19T17:06:20.429Z,57.94
2024-02-19T17:08:46.908Z,57.59
2024-02-19T17:11:13.416Z,57.27
2024-02-19T17:13:39.901Z,56.09
2024-02-19T17:16:06.473Z,55.98
2024-02-19T17:18:33.121Z,56.14
2024-02-19T17:20:59.656Z,56.19
2024-02-19T17:23:26.073Z,56.98
2024-02-19T17:25:52.510Z,56.77
2024-02-19T17:28:18.981Z,56.71
2024-02-19T17:30:45.515Z,56.48
2024-02-19T17:33:12.087Z,56.57
2024-02-19T17:35:41.569Z,56.63
2024-02-19T17:38:10.018Z,56.65
2024-02-19T17:40:36.550Z,57.17
2024-02-19T17:43:03.093Z,57.12
2024-02-19T17:45:29.566Z,56.75
2024-02-19T17:47:56.034Z,56.72
2024-02-19T17:50:22.545Z,57.06
2024-02-19T17:52:49.090Z,55.89
2024-02-19T17:55:15.599Z,58.36
2024-02-19T17:57:42.137Z,60.49
2024-02-19T18:00:08.557Z,63.77
2024-02-19T18:02:35.459Z,64.91
2024-02-19T18:05:01.876Z,65.34
2024-02-19T18:07:28.909Z,67.21
2024-02-19T18:09:55.470Z,68.43
2024-02-19T18:12:21.899Z,69.72
2024-02-19T18:14:48.370Z,70.50
2024-02-19T18:17:14.812Z,71.04
2024-02-19T18:19:41.415Z,71.52
2024-02-19T18:22:07.995Z,72.54
2024-02-19T18:24:34.508Z,74.65
2024-02-19T18:27:00.950Z,76.19
2024-02-19T18:29:27.362Z,76.30
2024-02-19T18:31:53.804Z,73.98
2024-02-19T18:34:20.262Z,71.85
2024-02-19T18:36:47.025Z,70.08
2024-02-19T18:39:13.495Z,68.62
2024-02-19T18:41:39.906Z,68.56
2024-02-19T18:44:06.339Z,67.94
2024-02-19T18:46:32.930Z,67.38
2024-02-19T18:48:59.505Z,67.26
2024-02-19T18:51:25.934Z,66.60
2024-02-19T18:53:52.387Z,66.12
2024-02-19T18:56:18.805Z,65.34
2024-02-19T18:58:45.267Z,65.26
2024-02-19T19:01:11.811Z,65.09
2024-02-19T19:03:38.350Z,65.40
2024-02-19T19:06:05.189Z,65.37
2024-02-19T19:08:31.749Z,65.10
2024-02-19T19:10:58.209Z,64.65
2024-02-19T19:13:24.743Z,64.68
2024-02-19T19:15:51.250Z,63.67
2024-02-19T19:18:17.784Z,63.61
2024-02-19T19:20:44.295Z,63.43
2024-02-19T19:23:10.767Z,63.15
2024-02-19T19:25:37.273Z,62.67
2024-02-19T19:28:03.801Z,61.99
2024-02-19T19:30:30.302Z,61.25
2024-02-19T19:32:56.845Z,61.07
2024-02-19T19:35:23.489Z,60.60
2024-02-19T19:37:49.944Z,60.02
2024-02-19T19:40:16.463Z,59.18
2024-02-19T19:42:43.057Z,58.98
2024-02-19T19:45:09.467Z,60.61
2024-02-19T19:47:36.050Z,60.31
2024-02-19T19:50:02.675Z,59.62
2024-02-19T19:52:30.029Z,62.53
2024-02-19T19:54:57.948Z,64.15
2024-02-19T19:57:25.834Z,64.13
2024-02-19T19:59:54.465Z,63.46
2024-02-19T20:02:20.928Z,63.12
2024-02-19T20:04:47.404Z,62.92
2024-02-19T20:07:13.887Z,62.91
2024-02-19T20:09:41.513Z,62.51
2024-02-19T20:12:09.034Z,61.80
2024-02-19T20:14:35.452Z,61.38
2024-02-19T20:17:01.926Z,60.22
2024-02-19T20:19:28.419Z,58.90
2024-02-19T20:21:55.026Z,59.94
2024-02-19T20:24:21.514Z,60.21
2024-02-19T20:26:47.941Z,61.30
2024-02-19T20:29:14.443Z,63.15
2024-02-19T20:31:40.908Z,65.44
2024-02-19T20:34:07.617Z,67.21
2024-02-19T20:36:36.774Z,68.48
2024-02-19T20:39:04.771Z,69.00
2024-02-19T20:41:31.182Z,68.64
2024-02-19T20:43:57.623Z,68.47
2024-02-19T20:46:24.143Z,69.57
2024-02-19T20:48:50.653Z,70.30
2024-02-19T20:51:17.140Z,71.63
2024-02-19T20:53:43.591Z,72.58
2024-02-19T20:56:10.019Z,73.30
2024-02-19T20:58:36.532Z,73.36
2024-02-19T21:01:03.085Z,74.45
2024-02-19T21:03:35.894Z,73.85
2024-02-19T21:06:09.255Z,73.26
2024-02-19T21:08:35.661Z,72.79
2024-02-19T21:11:02.115Z,72.92
2024-02-19T21:13:28.571Z,72.25
2024-02-19T21:15:55.988Z,71.77
2024-02-19T21:18:31.325Z,71.64
2024-02-19T21:21:10.132Z,71.22
2024-02-19T21:23:38.860Z,70.06
2024-02-19T21:26:05.289Z,69.61
2024-02-19T21:28:31.801Z,68.38
2024-02-19T21:30:58.352Z,69.15
2024-02-19T21:33:24.950Z,68.59
2024-02-19T21:35:51.404Z,69.42
2024-02-19T21:38:17.831Z,68.90
2024-02-19T21:40:44.300Z,69.24
2024-02-19T21:43:10.779Z,70.13
2024-02-19T21:45:37.233Z,70.35
2024-02-19T21:48:03.763Z,70.83
2024-02-19T21:50:30.233Z,70.29
2024-02-19T21:52:56.652Z,71.08
2024-02-19T21:55:23.129Z,70.22
2024-02-19T21:57:49.570Z,66.53
2024-02-19T22:00:16.015Z,68.11
2024-02-19T22:02:42.438Z,68.45
2024-02-19T22:05:08.973Z,69.04
2024-02-19T22:07:35.484Z,69.50
2024-02-19T22:10:02.084Z,69.63
2024-02-19T22:12:28.532Z,69.74
2024-02-19T22:14:55.004Z,68.97
2024-02-19T22:17:21.432Z,68.79
2024-02-19T22:19:47.964Z,69.63
2024-02-19T22:22:14.431Z,69.23
2024-02-19T22:24:40.989Z,67.04
2024-02-19T22:27:07.406Z,66.39
2024-02-19T22:29:33.832Z,67.76
2024-02-19T22:32:00.283Z,66.84
2024-02-19T22:34:26.775Z,72.60
2024-02-19T22:36:53.308Z,76.96
2024-02-19T22:39:19.742Z,77.73
2024-02-19T22:41:46.175Z,77.34
2024-02-19T22:44:12.597Z,78.04
2024-02-19T22:46:39.141Z,77.22
2024-02-19T22:49:05.752Z,77.18
2024-02-19T22:51:32.319Z,77.18
2024-02-19T22:53:58.783Z,75.42
2024-02-19T22:56:25.203Z,72.83
2024-02-19T22:58:53.560Z,72.97
2024-02-19T23:01:23.301Z,70.72
2024-02-19T23:03:49.828Z,71.47
2024-02-19T23:06:16.262Z,71.38
2024-02-19T23:08:42.797Z,72.75
2024-02-19T23:11:09.258Z,72.59
2024-02-19T23:13:35.762Z,71.99
2024-02-19T23:16:02.236Z,71.32
2024-02-19T23:18:28.762Z,71.33
2024-02-19T23:20:55.313Z,69.99
2024-02-19T23:23:21.774Z,68.89
2024-02-19T23:25:48.282Z,69.89
2024-02-19T23:28:14.722Z,69.87
2024-02-19T23:30:41.155Z,69.88
2024-02-19T23:33:07.709Z,69.56
2024-02-19T23:35:34.197Z,69.53
2024-02-19T23:38:00.654Z,69.10
2024-02-19T23:40:27.247Z,68.52
2024-02-19T23:42:53.800Z,67.47
2024-02-19T23:45:20.260Z,68.91
2024-02-19T23:47:48.180Z,69.56
2024-02-19T23:50:14.804Z,70.08
2024-02-19T23:52:41.762Z,69.41
2024-02-19T23:55:08.351Z,68.78
2024-02-19T23:57:34.777Z,68.83
